sensor_id;sensor_type;location;lat;lon;timestamp;pressure;altitude;pressure_sealevel;temperature;humidity
6565;BME280;3316;44.118;27.258;2024-01-30T00:02:18;103558.25;;;1.54;100.00
6565;BME280;3316;44.118;27.258;2024-01-30T00:04:43;103588.59;;;1.67;100.00
6565;BME280;3316;44.118;27.258;2024-01-30T00:07:08;103587.59;;;1.65;100.00
6565;BME280;3316;44.118;27.258;2024-01-30T00:09:34;103565.72;;;1.61;100.00
6565;BME280;3316;44.118;27.258;2024-01-30T00:11:59;103605.53;;;1.85;100.00
6565;BME280;3316;44.118;27.258;2024-01-30T00:14:25;103575.25;;;1.74;100.00
6565;BME280;3316;44.118;27.258;2024-01-30T00:16:51;103602.50;;;2.15;100.00
6565;BME280;3316;44.118;27.258;2024-01-30T00:19:16;103565.56;;;1.83;100.00
6565;BME280;3316;44.118;27.258;2024-01-30T00:21:42;103607.50;;;2.12;100.00
6565;BME280;3316;44.118;27.258;2024-01-30T00:24:07;103599.47;;;2.09;100.00
6565;BME280;3316;44.118;27.258;2024-01-30T00:26:33;103600.31;;;2.21;100.00
6565;BME280;3316;44.118;27.258;2024-01-30T00:28:58;103602.50;;;2.15;100.00
6565;BME280;3316;44.118;27.258;2024-01-30T00:31:24;103607.03;;;2.06;100.00
6565;BME280;3316;44.118;27.258;2024-01-30T00:33:50;103599.56;;;2.11;100.00
6565;BME280;3316;44.118;27.258;2024-01-30T00:36:15;103586.66;;;2.24;100.00
6565;BME280;3316;44.118;27.258;2024-01-30T00:38:40;103602.25;;;2.24;100.00
6565;BME280;3316;44.118;27.258;2024-01-30T00:41:08;103603.50;;;2.42;100.00
6565;BME280;3316;44.118;27.258;2024-01-30T00:43:33;103583.44;;;2.03;100.00
6565;BME280;3316;44.118;27.258;2024-01-30T00:45:59;103591.59;;;1.96;100.00
6565;BME280;3316;44.118;27.258;2024-01-30T00:48:24;103600.31;;;1.97;100.00
6565;BME280;3316;44.118;27.258;2024-01-30T00:50:50;103600.31;;;1.97;100.00
6565;BME280;3316;44.118;27.258;2024-01-30T00:53:15;103589.22;;;1.88;100.00
6565;BME280;3316;44.118;27.258;2024-01-30T00:55:41;103597.38;;;1.92;100.00
6565;BME280;3316;44.118;27.258;2024-01-30T00:58:06;103565.56;;;1.83;100.00
6565;BME280;3316;44.118;27.258;2024-01-30T01:00:32;103598.25;;;2.04;100.00
6565;BME280;3316;44.118;27.258;2024-01-30T01:02:58;103567.13;;;1.93;100.00
6565;BME280;3316;44.118;27.258;2024-01-30T01:05:24;103596.09;;;2.10;100.00
6565;BME280;3316;44.118;27.258;2024-01-30T01:07:50;103599.75;;;2.25;100.00
6565;BME280;3316;44.118;27.258;2024-01-30T01:10:18;103598.94;;;2.26;100.00
6565;BME280;3316;44.118;27.258;2024-01-30T01:12:44;103608.03;;;2.44;100.00
6565;BME280;3316;44.118;27.258;2024-01-30T01:15:10;103550.69;;;2.05;100.00
6565;BME280;3316;44.118;27.258;2024-01-30T01:17:39;103580.03;;;2.16;100.00
6565;BME280;3316;44.118;27.258;2024-01-30T01:20:06;103589.22;;;2.35;100.00
6565;BME280;3316;44.118;27.258;2024-01-30T01:22:32;103587.78;;;2.27;100.00
6565;BME280;3316;44.118;27.258;2024-01-30T01:25:00;103601.09;;;2.32;100.00
6565;BME280;3316;44.118;27.258;2024-01-30T01:27:26;103599.84;;;2.27;100.00
6565;BME280;3316;44.118;27.258;2024-01-30T01:29:52;103500.13;;;1.75;100.00
6565;BME280;3316;44.118;27.258;2024-01-30T01:32:18;103601.78;;;2.29;100.00
6565;BME280;3316;44.118;27.258;2024-01-30T01:34:43;103570.69;;;2.06;100.00
6565;BME280;3316;44.118;27.258;2024-01-30T01:37:09;103602.06;;;2.45;100.00
6565;BME280;3316;44.118;27.258;2024-01-30T01:39:34;103542.75;;;2.15;100.00
6565;BME280;3316;44.118;27.258;2024-01-30T01:42:00;103604.81;;;2.35;100.00
6565;BME280;3316;44.118;27.258;2024-01-30T01:44:26;103578.06;;;2.25;100.00
6565;BME280;3316;44.118;27.258;2024-01-30T01:46:52;103573.13;;;2.16;100.00
6565;BME280;3316;44.118;27.258;2024-01-30T01:49:19;103611.31;;;2.42;100.00
6565;BME280;3316;44.118;27.258;2024-01-30T01:51:46;103584.16;;;2.25;100.00
6565;BME280;3316;44.118;27.258;2024-01-30T01:54:14;103609.63;;;2.42;100.00
6565;BME280;3316;44.118;27.258;2024-01-30T01:56:39;103608.03;;;2.44;100.00
6565;BME280;3316;44.118;27.258;2024-01-30T01:59:06;103606.00;;;2.40;100.00
6565;BME280;3316;44.118;27.258;2024-01-30T02:01:38;103610.28;;;2.51;100.00
6565;BME280;3316;44.118;27.258;2024-01-30T02:04:07;103601.91;;;2.55;100.00
6565;BME280;3316;44.118;27.258;2024-01-30T02:06:33;103606.66;;;2.49;100.00
6565;BME280;3316;44.118;27.258;2024-01-30T02:08:59;103603.88;;;2.35;100.00
6565;BME280;3316;44.118;27.258;2024-01-30T02:11:24;103612.66;;;2.24;100.00
6565;BME280;3316;44.118;27.258;2024-01-30T02:13:50;103587.84;;;2.04;100.00
6565;BME280;3316;44.118;27.258;2024-01-30T02:16:16;103592.63;;;1.98;100.00
6565;BME280;3316;44.118;27.258;2024-01-30T02:18:44;103590.50;;;1.81;100.00
6565;BME280;3316;44.118;27.258;2024-01-30T02:21:13;103571.13;;;1.64;100.00
6565;BME280;3316;44.118;27.258;2024-01-30T02:23:39;103529.19;;;1.35;100.00
6565;BME280;3316;44.118;27.258;2024-01-30T02:26:06;103566.84;;;1.65;100.00
6565;BME280;3316;44.118;27.258;2024-01-30T02:28:31;103603.00;;;1.98;100.00
6565;BME280;3316;44.118;27.258;2024-01-30T02:30:57;103590.22;;;2.01;100.00
6565;BME280;3316;44.118;27.258;2024-01-30T02:33:22;103575.19;;;2.09;100.00
6565;BME280;3316;44.118;27.258;2024-01-30T02:35:48;103569.09;;;2.08;100.00
6565;BME280;3316;44.118;27.258;2024-01-30T02:38:14;103576.56;;;2.04;100.00
6565;BME280;3316;44.118;27.258;2024-01-30T02:40:40;103603.03;;;2.23;100.00
6565;BME280;3316;44.118;27.258;2024-01-30T02:43:05;103605.09;;;2.15;100.00
6565;BME280;3316;44.118;27.258;2024-01-30T02:45:31;103604.22;;;2.03;100.00
6565;BME280;3316;44.118;27.258;2024-01-30T02:47:56;103606.34;;;2.20;100.00
6565;BME280;3316;44.118;27.258;2024-01-30T02:50:22;103613.25;;;2.08;100.00
6565;BME280;3316;44.118;27.258;2024-01-30T02:52:47;103602.75;;;2.07;100.00
6565;BME280;3316;44.118;27.258;2024-01-30T02:55:13;103602.88;;;2.08;100.00
6565;BME280;3316;44.118;27.258;2024-01-30T02:57:39;103607.50;;;2.12;100.00
6565;BME280;3316;44.118;27.258;2024-01-30T03:00:05;103617.00;;;2.00;100.00
6565;BME280;3316;44.118;27.258;2024-01-30T03:02:32;103576.13;;;1.98;100.00
6565;BME280;3316;44.118;27.258;2024-01-30T03:04:58;103591.28;;;1.80;100.00
6565;BME280;3316;44.118;27.258;2024-01-30T03:07:24;103590.13;;;2.00;100.00
6565;BME280;3316;44.118;27.258;2024-01-30T03:09:49;103601.97;;;1.96;100.00
6565;BME280;3316;44.118;27.258;2024-01-30T03:12:15;103571.09;;;1.76;100.00
6565;BME280;3316;44.118;27.258;2024-01-30T03:14:40;103598.84;;;1.89;100.00
6565;BME280;3316;44.118;27.258;2024-01-30T03:17:06;103570.03;;;1.86;100.00
6565;BME280;3316;44.118;27.258;2024-01-30T03:19:31;103597.56;;;2.07;100.00
6565;BME280;3316;44.118;27.258;2024-01-30T03:21:56;103591.47;;;2.06;100.00
6565;BME280;3316;44.118;27.258;2024-01-30T03:24:22;103587.41;;;1.98;100.00
6565;BME280;3316;44.118;27.258;2024-01-30T03:26:47;103581.78;;;1.92;100.00
6565;BME280;3316;44.118;27.258;2024-01-30T03:29:13;103589.50;;;1.79;100.00
6565;BME280;3316;44.118;27.258;2024-01-30T03:31:39;103583.72;;;1.83;100.00
6565;BME280;3316;44.118;27.258;2024-01-30T03:34:04;103596.34;;;1.90;100.00
6565;BME280;3316;44.118;27.258;2024-01-30T03:36:30;103576.81;;;1.83;100.00
6565;BME280;3316;44.118;27.258;2024-01-30T03:38:58;103600.19;;;1.83;100.00
6565;BME280;3316;44.118;27.258;2024-01-30T03:41:23;103588.38;;;1.75;100.00
6565;BME280;3316;44.118;27.258;2024-01-30T03:43:49;103525.59;;;1.22;100.00
6565;BME280;3316;44.118;27.258;2024-01-30T03:46:14;103588.25;;;1.74;100.00
6565;BME280;3316;44.118;27.258;2024-01-30T03:48:39;103561.00;;;1.56;100.00
6565;BME280;3316;44.118;27.258;2024-01-30T03:51:05;103586.00;;;1.67;100.00
6565;BME280;3316;44.118;27.258;2024-01-30T03:53:31;103588.59;;;1.67;100.00
6565;BME280;3316;44.118;27.258;2024-01-30T03:55:56;103577.56;;;1.58;100.00
6565;BME280;3316;44.118;27.258;2024-01-30T03:58:22;103521.19;;;1.21;100.00
6565;BME280;3316;44.118;27.258;2024-01-30T04:00:47;103582.31;;;1.52;100.00
6565;BME280;3316;44.118;27.258;2024-01-30T04:03:14;103587.94;;;1.69;100.00
6565;BME280;3316;44.118;27.258;2024-01-30T04:05:41;103586.56;;;1.74;100.00
6565;BME280;3316;44.118;27.258;2024-01-30T04:08:07;103587.97;;;1.58;100.00
6565;BME280;3316;44.118;27.258;2024-01-30T04:10:33;103578.13;;;1.54;100.00
6565;BME280;3316;44.118;27.258;2024-01-30T04:12:58;103581.03;;;1.58;100.00
6565;BME280;3316;44.118;27.258;2024-01-30T04:15:24;103583.06;;;1.62;100.00
6565;BME280;3316;44.118;27.258;2024-01-30T04:17:50;103585.34;;;1.69;100.00
6565;BME280;3316;44.118;27.258;2024-01-30T04:20:15;103589.28;;;1.64;100.00
6565;BME280;3316;44.118;27.258;2024-01-30T04:22:44;103597.53;;;1.59;100.00
6565;BME280;3316;44.118;27.258;2024-01-30T04:25:11;103591.88;;;1.64;100.00
6565;BME280;3316;44.118;27.258;2024-01-30T04:27:37;103563.34;;;1.53;100.00
6565;BME280;3316;44.118;27.258;2024-01-30T04:30:02;103594.25;;;1.73;100.00
6565;BME280;3316;44.118;27.258;2024-01-30T04:32:29;103536.06;;;1.35;100.00
6565;BME280;3316;44.118;27.258;2024-01-30T04:34:54;103598.28;;;1.93;100.00
6565;BME280;3316;44.118;27.258;2024-01-30T04:37:20;103592.88;;;1.78;100.00
6565;BME280;3316;44.118;27.258;2024-01-30T04:39:45;103600.31;;;1.97;100.00
6565;BME280;3316;44.118;27.258;2024-01-30T04:42:10;103589.94;;;1.85;100.00
6565;BME280;3316;44.118;27.258;2024-01-30T04:44:36;103603.78;;;1.97;100.00
6565;BME280;3316;44.118;27.258;2024-01-30T04:47:01;103608.09;;;1.97;100.00
6565;BME280;3316;44.118;27.258;2024-01-30T04:49:27;103540.44;;;1.47;100.00
6565;BME280;3316;44.118;27.258;2024-01-30T04:51:54;103607.41;;;1.88;100.00
6565;BME280;3316;44.118;27.258;2024-01-30T04:54:20;103603.56;;;1.94;100.00
6565;BME280;3316;44.118;27.258;2024-01-30T04:56:45;103593.31;;;1.84;100.00
6565;BME280;3316;44.118;27.258;2024-01-30T04:59:11;103596.47;;;1.80;100.00
6565;BME280;3316;44.118;27.258;2024-01-30T05:01:37;103610.81;;;1.87;100.00
6565;BME280;3316;44.118;27.258;2024-01-30T05:04:02;103598.38;;;1.94;100.00
6565;BME280;3316;44.118;27.258;2024-01-30T05:06:28;103607.03;;;2.06;100.00
6565;BME280;3316;44.118;27.258;2024-01-30T05:08:54;103614.59;;;2.03;100.00
6565;BME280;3316;44.118;27.258;2024-01-30T05:11:19;103610.25;;;1.91;100.00
6565;BME280;3316;44.118;27.258;2024-01-30T05:13:45;103588.13;;;1.84;100.00
6565;BME280;3316;44.118;27.258;2024-01-30T05:16:10;103602.91;;;1.97;100.00
6565;BME280;3316;44.118;27.258;2024-01-30T05:18:36;103611.91;;;2.02;100.00
6565;BME280;3316;44.118;27.258;2024-01-30T05:21:02;103605.38;;;2.07;100.00
6565;BME280;3316;44.118;27.258;2024-01-30T05:23:28;103575.56;;;1.90;100.00
6565;BME280;3316;44.118;27.258;2024-01-30T05:25:53;103611.81;;;2.00;100.00
6565;BME280;3316;44.118;27.258;2024-01-30T05:28:18;103594.34;;;2.11;100.00
6565;BME280;3316;44.118;27.258;2024-01-30T05:30:44;103602.97;;;2.10;100.00
6565;BME280;3316;44.118;27.258;2024-01-30T05:33:09;103608.56;;;2.27;100.00
6565;BME280;3316;44.118;27.258;2024-01-30T05:35:37;103608.06;;;2.33;100.00
6565;BME280;3316;44.118;27.258;2024-01-30T05:38:03;103614.88;;;2.31;100.00
6565;BME280;3316;44.118;27.258;2024-01-30T05:40:28;103604.41;;;2.18;100.00
6565;BME280;3316;44.118;27.258;2024-01-30T05:42:54;103611.25;;;2.29;100.00
6565;BME280;3316;44.118;27.258;2024-01-30T05:45:19;103617.38;;;2.29;100.00
6565;BME280;3316;44.118;27.258;2024-01-30T05:47:45;103602.22;;;2.35;100.00
6565;BME280;3316;44.118;27.258;2024-01-30T05:50:10;103617.13;;;2.26;100.00
6565;BME280;3316;44.118;27.258;2024-01-30T05:52:36;103602.06;;;2.09;100.00
6565;BME280;3316;44.118;27.258;2024-01-30T05:55:02;103617.13;;;2.38;100.00
6565;BME280;3316;44.118;27.258;2024-01-30T05:57:28;103616.88;;;2.35;100.00
6565;BME280;3316;44.118;27.258;2024-01-30T05:59:53;103587.75;;;2.03;100.00
6565;BME280;3316;44.118;27.258;2024-01-30T06:02:19;103629.25;;;2.26;100.00
6565;BME280;3316;44.118;27.258;2024-01-30T06:04:44;103601.66;;;1.92;100.00
6565;BME280;3316;44.118;27.258;2024-01-30T06:07:10;103636.63;;;2.08;100.00
6565;BME280;3316;44.118;27.258;2024-01-30T06:09:35;103587.69;;;1.78;100.00
6565;BME280;3316;44.118;27.258;2024-01-30T06:12:00;103617.03;;;1.89;100.00
6565;BME280;3316;44.118;27.258;2024-01-30T06:14:26;103636.09;;;1.89;100.00
6565;BME280;3316;44.118;27.258;2024-01-30T06:16:51;103637.78;;;2.00;100.00
6565;BME280;3316;44.118;27.258;2024-01-30T06:19:17;103640.25;;;1.99;100.00
6565;BME280;3316;44.118;27.258;2024-01-30T06:21:42;103629.34;;;1.91;100.00
6565;BME280;3316;44.118;27.258;2024-01-30T06:24:08;103643.88;;;2.01;100.00
6565;BME280;3316;44.118;27.258;2024-01-30T06:26:34;103637.78;;;2.00;100.00
6565;BME280;3316;44.118;27.258;2024-01-30T06:28:59;103574.94;;;1.81;100.00
6565;BME280;3316;44.118;27.258;2024-01-30T06:31:24;103624.22;;;2.04;100.00
6565;BME280;3316;44.118;27.258;2024-01-30T06:33:50;103635.16;;;2.12;100.00
6565;BME280;3316;44.118;27.258;2024-01-30T06:36:16;103623.66;;;1.97;100.00
6565;BME280;3316;44.118;27.258;2024-01-30T06:38:41;103624.31;;;2.06;100.00
6565;BME280;3316;44.118;27.258;2024-01-30T06:41:07;103632.44;;;2.10;100.00
6565;BME280;3316;44.118;27.258;2024-01-30T06:43:32;103634.78;;;2.19;100.00
6565;BME280;3316;44.118;27.258;2024-01-30T06:45:58;103648.22;;;2.13;100.00
6565;BME280;3316;44.118;27.258;2024-01-30T06:48:24;103629.75;;;2.09;100.00
6565;BME280;3316;44.118;27.258;2024-01-30T06:50:50;103636.31;;;2.28;100.00
6565;BME280;3316;44.118;27.258;2024-01-30T06:53:16;103609.94;;;2.11;100.00
6565;BME280;3316;44.118;27.258;2024-01-30T06:55:41;103648.56;;;2.18;100.00
6565;BME280;3316;44.118;27.258;2024-01-30T06:58:06;103651.84;;;2.15;100.00
6565;BME280;3316;44.118;27.258;2024-01-30T07:00:32;103635.81;;;2.09;100.00
6565;BME280;3316;44.118;27.258;2024-01-30T07:02:57;103654.34;;;2.14;100.00
6565;BME280;3316;44.118;27.258;2024-01-30T07:05:23;103655.03;;;2.00;100.00
6565;BME280;3316;44.118;27.258;2024-01-30T07:07:48;103640.78;;;2.18;100.00
6565;BME280;3316;44.118;27.258;2024-01-30T07:10:14;103647.56;;;2.16;100.00
6565;BME280;3316;44.118;27.258;2024-01-30T07:12:39;103655.75;;;2.33;100.00
6565;BME280;3316;44.118;27.258;2024-01-30T07:15:05;103622.69;;;2.19;100.00
6565;BME280;3316;44.118;27.258;2024-01-30T07:17:33;103664.78;;;2.38;100.00
6565;BME280;3316;44.118;27.258;2024-01-30T07:19:59;103666.97;;;2.57;100.00
6565;BME280;3316;44.118;27.258;2024-01-30T07:22:24;103665.16;;;2.31;100.00
6565;BME280;3316;44.118;27.258;2024-01-30T07:24:50;103667.06;;;2.34;100.00
6565;BME280;3316;44.118;27.258;2024-01-30T07:27:17;103669.72;;;2.47;100.00
6565;BME280;3316;44.118;27.258;2024-01-30T07:29:43;103678.63;;;2.50;100.00
6565;BME280;3316;44.118;27.258;2024-01-30T07:32:09;103674.00;;;2.46;100.00
6565;BME280;3316;44.118;27.258;2024-01-30T07:34:34;103648.31;;;2.26;100.00
6565;BME280;3316;44.118;27.258;2024-01-30T07:37:01;103661.78;;;2.57;100.00
6565;BME280;3316;44.118;27.258;2024-01-30T07:39:27;103665.72;;;2.88;100.00
6565;BME280;3316;44.118;27.258;2024-01-30T07:41:52;103648.63;;;2.92;100.00
6565;BME280;3316;44.118;27.258;2024-01-30T07:44:17;103662.22;;;3.01;100.00
6565;BME280;3316;44.118;27.258;2024-01-30T07:46:43;103673.72;;;3.16;100.00
6565;BME280;3316;44.118;27.258;2024-01-30T07:49:08;103668.28;;;3.26;100.00
6565;BME280;3316;44.118;27.258;2024-01-30T07:51:35;103624.78;;;2.86;100.00
6565;BME280;3316;44.118;27.258;2024-01-30T07:54:00;103658.34;;;2.94;100.00
6565;BME280;3316;44.118;27.258;2024-01-30T07:56:26;103634.16;;;2.70;100.00
6565;BME280;3316;44.118;27.258;2024-01-30T07:58:51;103651.69;;;3.24;100.00
6565;BME280;3316;44.118;27.258;2024-01-30T08:01:17;103666.31;;;3.22;100.00
6565;BME280;3316;44.118;27.258;2024-01-30T08:03:42;103656.94;;;3.37;100.00
6565;BME280;3316;44.118;27.258;2024-01-30T08:06:08;103648.03;;;3.33;100.00
6565;BME280;3316;44.118;27.258;2024-01-30T08:08:33;103637.88;;;3.25;100.00
6565;BME280;3316;44.118;27.258;2024-01-30T08:10:59;103630.09;;;3.38;100.00
6565;BME280;3316;44.118;27.258;2024-01-30T08:13:24;103642.09;;;3.88;100.00
6565;BME280;3316;44.118;27.258;2024-01-30T08:15:50;103666.25;;;3.99;100.00
6565;BME280;3316;44.118;27.258;2024-01-30T08:18:15;103669.34;;;4.06;100.00
6565;BME280;3316;44.118;27.258;2024-01-30T08:20:40;103619.16;;;3.96;100.00
6565;BME280;3316;44.118;27.258;2024-01-30T08:23:06;103667.50;;;4.18;100.00
6565;BME280;3316;44.118;27.258;2024-01-30T08:25:31;103662.78;;;4.26;100.00
6565;BME280;3316;44.118;27.258;2024-01-30T08:27:57;103666.78;;;4.34;100.00
6565;BME280;3316;44.118;27.258;2024-01-30T08:30:22;103641.63;;;4.34;100.00
6565;BME280;3316;44.118;27.258;2024-01-30T08:32:48;103634.72;;;4.22;100.00
6565;BME280;3316;44.118;27.258;2024-01-30T08:35:13;103653.91;;;4.50;100.00
6565;BME280;3316;44.118;27.258;2024-01-30T08:37:41;103664.38;;;4.65;100.00
6565;BME280;3316;44.118;27.258;2024-01-30T08:40:07;103666.09;;;4.64;100.00
6565;BME280;3316;44.118;27.258;2024-01-30T08:42:33;103674.19;;;4.69;100.00
6565;BME280;3316;44.118;27.258;2024-01-30T08:44:59;103659.75;;;4.74;100.00
6565;BME280;3316;44.118;27.258;2024-01-30T08:47:24;103649.97;;;4.99;100.00
6565;BME280;3316;44.118;27.258;2024-01-30T08:49:50;103660.53;;;5.15;100.00
6565;BME280;3316;44.118;27.258;2024-01-30T08:52:16;103664.94;;;6.05;100.00
6565;BME280;3316;44.118;27.258;2024-01-30T08:54:42;103667.09;;;6.91;100.00
6565;BME280;3316;44.118;27.258;2024-01-30T08:57:08;103666.94;;;6.88;100.00
6565;BME280;3316;44.118;27.258;2024-01-30T08:59:33;103674.47;;;6.98;100.00
6565;BME280;3316;44.118;27.258;2024-01-30T09:01:59;103682.88;;;8.29;100.00
6565;BME280;3316;44.118;27.258;2024-01-30T09:04:24;103679.63;;;8.17;100.00
6565;BME280;3316;44.118;27.258;2024-01-30T09:06:50;103674.31;;;7.29;100.00
6565;BME280;3316;44.118;27.258;2024-01-30T09:09:16;103684.84;;;6.96;100.00
6565;BME280;3316;44.118;27.258;2024-01-30T09:11:43;103622.22;;;7.17;100.00
6565;BME280;3316;44.118;27.258;2024-01-30T09:14:08;103661.84;;;8.65;98.17
6565;BME280;3316;44.118;27.258;2024-01-30T09:16:34;103668.91;;;10.52;74.74
6565;BME280;3316;44.118;27.258;2024-01-30T09:18:59;103670.53;;;10.26;73.74
6565;BME280;3316;44.118;27.258;2024-01-30T09:21:25;103647.78;;;12.26;60.59
6565;BME280;3316;44.118;27.258;2024-01-30T09:23:51;103666.03;;;13.39;55.82
6565;BME280;3316;44.118;27.258;2024-01-30T09:26:18;103676.06;;;13.86;52.47
6565;BME280;3316;44.118;27.258;2024-01-30T09:28:43;103666.34;;;14.24;50.76
6565;BME280;3316;44.118;27.258;2024-01-30T09:31:10;103668.81;;;14.94;49.33
6565;BME280;3316;44.118;27.258;2024-01-30T09:33:36;103628.13;;;16.53;46.42
6565;BME280;3316;44.118;27.258;2024-01-30T09:36:02;103661.88;;;16.60;43.33
6565;BME280;3316;44.118;27.258;2024-01-30T09:38:27;103656.09;;;15.21;46.63
6565;BME280;3316;44.118;27.258;2024-01-30T09:40:56;103651.81;;;16.38;45.62
6565;BME280;3316;44.118;27.258;2024-01-30T09:43:23;103650.81;;;17.88;41.95
6565;BME280;3316;44.118;27.258;2024-01-30T09:45:50;103642.53;;;19.20;39.23
6565;BME280;3316;44.118;27.258;2024-01-30T09:48:16;103641.91;;;16.92;41.18
6565;BME280;3316;44.118;27.258;2024-01-30T09:50:42;103618.22;;;16.43;43.24
6565;BME280;3316;44.118;27.258;2024-01-30T09:53:08;103640.88;;;16.17;42.52
6565;BME280;3316;44.118;27.258;2024-01-30T09:55:35;103630.75;;;15.40;44.09
6565;BME280;3316;44.118;27.258;2024-01-30T09:58:01;103634.78;;;16.91;42.38
6565;BME280;3316;44.118;27.258;2024-01-30T10:00:27;103634.25;;;18.41;39.41
6565;BME280;3316;44.118;27.258;2024-01-30T10:02:53;103607.81;;;18.90;38.64
6565;BME280;3316;44.118;27.258;2024-01-30T10:05:19;103636.97;;;18.47;38.40
6565;BME280;3316;44.118;27.258;2024-01-30T10:07:55;103620.75;;;18.11;39.12
6565;BME280;3316;44.118;27.258;2024-01-30T10:10:23;103622.13;;;19.34;38.38
6565;BME280;3316;44.118;27.258;2024-01-30T10:12:49;103619.47;;;19.44;37.34
6565;BME280;3316;44.118;27.258;2024-01-30T10:15:15;103617.56;;;18.86;37.75
6565;BME280;3316;44.118;27.258;2024-01-30T10:17:40;103612.91;;;17.18;39.21
6565;BME280;3316;44.118;27.258;2024-01-30T10:20:06;103610.72;;;15.57;42.76
6565;BME280;3316;44.118;27.258;2024-01-30T10:22:33;103590.81;;;13.28;46.51
6565;BME280;3316;44.118;27.258;2024-01-30T10:25:00;103606.44;;;12.58;49.13
6565;BME280;3316;44.118;27.258;2024-01-30T10:27:26;103571.97;;;11.14;53.10
6565;BME280;3316;44.118;27.258;2024-01-30T10:29:52;103610.75;;;10.46;55.45
6565;BME280;3316;44.118;27.258;2024-01-30T10:32:17;103599.31;;;9.57;60.61
6565;BME280;3316;44.118;27.258;2024-01-30T10:34:43;103600.59;;;8.85;67.86
6565;BME280;3316;44.118;27.258;2024-01-30T10:37:10;103590.16;;;8.28;78.27
6565;BME280;3316;44.118;27.258;2024-01-30T10:39:42;103577.09;;;8.12;87.34
6565;BME280;3316;44.118;27.258;2024-01-30T10:42:12;103525.81;;;7.45;83.83
6565;BME280;3316;44.118;27.258;2024-01-30T10:44:59;103585.63;;;8.83;77.40
6565;BME280;3316;44.118;27.258;2024-01-30T10:47:29;103578.78;;;9.48;67.48
6565;BME280;3316;44.118;27.258;2024-01-30T10:49:55;103583.06;;;8.84;67.23
6565;BME280;3316;44.118;27.258;2024-01-30T10:52:23;103560.28;;;7.53;72.29
6565;BME280;3316;44.118;27.258;2024-01-30T10:54:51;103564.56;;;6.66;80.24
6565;BME280;3316;44.118;27.258;2024-01-30T10:57:17;103556.81;;;6.19;96.73
6565;BME280;3316;44.118;27.258;2024-01-30T10:59:43;103555.03;;;6.18;98.12
6565;BME280;3316;44.118;27.258;2024-01-30T11:02:11;103545.13;;;6.12;99.09
6565;BME280;3316;44.118;27.258;2024-01-30T11:04:37;103505.84;;;6.27;96.97
6565;BME280;3316;44.118;27.258;2024-01-30T11:07:14;103540.31;;;7.37;88.16
6565;BME280;3316;44.118;27.258;2024-01-30T11:09:40;103552.84;;;7.09;85.33
6565;BME280;3316;44.118;27.258;2024-01-30T11:12:12;103513.44;;;7.06;86.08
6565;BME280;3316;44.118;27.258;2024-01-30T11:14:37;103547.81;;;8.40;75.67
6565;BME280;3316;44.118;27.258;2024-01-30T11:17:05;103543.25;;;9.58;62.63
6565;BME280;3316;44.118;27.258;2024-01-30T11:19:31;103532.88;;;8.39;67.21
6565;BME280;3316;44.118;27.258;2024-01-30T11:21:57;103541.03;;;8.45;69.36
6565;BME280;3316;44.118;27.258;2024-01-30T11:24:25;103533.09;;;8.24;68.27
6565;BME280;3316;44.118;27.258;2024-01-30T11:26:58;103535.47;;;8.00;70.91
6565;BME280;3316;44.118;27.258;2024-01-30T11:29:25;103539.22;;;7.69;74.76
6565;BME280;3316;44.118;27.258;2024-01-30T11:31:59;103538.56;;;7.20;78.89
6565;BME280;3316;44.118;27.258;2024-01-30T11:34:25;103533.69;;;7.10;83.16
6565;BME280;3316;44.118;27.258;2024-01-30T11:37:01;103528.19;;;7.22;84.96
6565;BME280;3316;44.118;27.258;2024-01-30T11:39:31;103535.34;;;7.08;84.26
6565;BME280;3316;44.118;27.258;2024-01-30T11:41:58;103526.72;;;6.59;88.86
6565;BME280;3316;44.118;27.258;2024-01-30T11:44:24;103520.13;;;6.83;95.07
6565;BME280;3316;44.118;27.258;2024-01-30T11:46:51;103503.19;;;6.77;95.58
6565;BME280;3316;44.118;27.258;2024-01-30T11:49:17;103515.94;;;6.53;99.08
6565;BME280;3316;44.118;27.258;2024-01-30T11:51:45;103512.09;;;6.47;97.86
6565;BME280;3316;44.118;27.258;2024-01-30T11:54:11;103493.00;;;6.32;98.23
6565;BME280;3316;44.118;27.258;2024-01-30T11:56:37;103495.50;;;6.46;97.89
6565;BME280;3316;44.118;27.258;2024-01-30T11:59:04;103488.97;;;6.38;97.92
6565;BME280;3316;44.118;27.258;2024-01-30T12:01:30;103476.94;;;6.24;93.08
6565;BME280;3316;44.118;27.258;2024-01-30T12:03:56;103496.94;;;6.23;93.56
6565;BME280;3316;44.118;27.258;2024-01-30T12:06:23;103477.19;;;6.46;94.49
6565;BME280;3316;44.118;27.258;2024-01-30T12:11:24;103496.19;;;6.76;91.24
6565;BME280;3316;44.118;27.258;2024-01-30T12:13:51;103490.88;;;6.74;93.89
6565;BME280;3316;44.118;27.258;2024-01-30T12:16:16;103487.13;;;6.69;93.61
6565;BME280;3316;44.118;27.258;2024-01-30T12:18:42;103494.88;;;6.68;94.47
6565;BME280;3316;44.118;27.258;2024-01-30T12:21:07;103488.88;;;6.53;95.48
6565;BME280;3316;44.118;27.258;2024-01-30T12:23:34;103484.59;;;6.21;97.08
6565;BME280;3316;44.118;27.258;2024-01-30T12:26:01;103418.81;;;5.81;100.00
6565;BME280;3316;44.118;27.258;2024-01-30T12:28:29;103476.94;;;6.08;100.00
6565;BME280;3316;44.118;27.258;2024-01-30T12:31:03;103456.66;;;6.04;100.00
6565;BME280;3316;44.118;27.258;2024-01-30T12:33:32;103412.16;;;6.02;99.06
6565;BME280;3316;44.118;27.258;2024-01-30T12:36:01;103475.09;;;6.73;94.57
6565;BME280;3316;44.118;27.258;2024-01-30T12:38:27;103477.19;;;6.80;98.17
6565;BME280;3316;44.118;27.258;2024-01-30T12:40:55;103414.44;;;6.64;94.21
6565;BME280;3316;44.118;27.258;2024-01-30T12:43:22;103470.91;;;6.76;91.04
6565;BME280;3316;44.118;27.258;2024-01-30T12:45:48;103468.22;;;6.41;93.75
6565;BME280;3316;44.118;27.258;2024-01-30T12:48:13;103473.81;;;6.15;99.90
6565;BME280;3316;44.118;27.258;2024-01-30T12:50:39;103472.25;;;6.18;100.00
6565;BME280;3316;44.118;27.258;2024-01-30T12:53:04;103476.00;;;6.40;99.98
6565;BME280;3316;44.118;27.258;2024-01-30T12:55:31;103421.31;;;5.94;98.12
6565;BME280;3316;44.118;27.258;2024-01-30T12:57:56;103475.81;;;6.37;100.00
6565;BME280;3316;44.118;27.258;2024-01-30T13:00:22;103436.72;;;6.22;100.00